Air Sicilia Virtual Airways - Route

Air Sicilia Virtual Airways - SIC025D

( IT ) LIPZ - 12:00
Venice Marco Polo Airport
VENICE ( VCE )
plane_to ( IT ) LIRA - 13:10
Ciampino Airport
ROMA ( CIA )

AIRPORT NEAR NAVIGATION AIDS

Type Name Frequency
VOR-DME Tessera 115300 KHZ
NDB Venezia 379 KHZ

METAR / TAF
LIPZ 211720Z 21004KT CAVOK 30/21 Q1014 NOSIG
LIPZ 211227Z 2112/2218 14010KT CAVOK BECMG 2117/2119 VRB05KT BECMG 2210/2212 14010KT

RUNWAY INFORMATION

Runway Runway length Runway width Runway elevation Runway displaced threshold Runway heading
04L 9121 148 7 308 42
22R 9121 148 7 0 222
04R 10827 148 7 0 42
22L 10827 148 7 0 222

AIRPORT FREQUENCIES

Type Name Frequency
APP APP 118.9 MHZ
ATIS ATIS 122.225 MHZ
GND GND 121.7 MHZ
TWR TWR 120.2 MHZ

AIRPORT NEAR NAVIGATION AIDS

Type Name Frequency
NDB Ciampino 412 KHZ
VOR-DME Roma 110800 KHZ

METAR / TAF
LIRA 211720Z 02006KT 9999 SCT070 24/19 Q1014
LIRA 211100Z 2112/2212 24010KT 9999 SCT030 TEMPO 2114/2117 4000 TSRA BECMG 2118/2120 VRB04KT

RUNWAY INFORMATION

Runway Runway length Runway width Runway elevation Runway displaced threshold Runway heading
15 7242 154 341 0 152.7
33 7242 154 427 0 332.7

AIRPORT FREQUENCIES

Type Name Frequency
ARR ROMA ARR 119.2 MHZ
CLD CLNC DEL 119.4 MHZ
DIR ROMA DIREC 119.2 MHZ
GND GND 121.75 MHZ
TWR TWR 120.5 MHZ

Flightplan

CHI Y106 GITOD

Air Sicilia Virtual Airways Fleets

AVAILABLE AIRCRAFTS for route at this time in Venice Marco Polo Airport

At this time no aircraft Air Sicilia Virtual Airways is available at Venice Marco Polo Airport
Only Charter flights.

223 NM

Distance in nautical miles.

€ 50,00

Ticket price for this flight.

0.55 h.

Estimated flight time.



07-08-2018
Aerosoft Professional Flight Planner PFPX

PFPX - Professional Flight Planner X - è un nuovo ed innovativo strumento di pianificazione del volo sviluppato da piloti e dispatcher del mondo reale. È un'aggiunta preziosa e realistica alla tua esperienza di simulaz ....


19-07-2018
Aerosoft Oslo X

L'Aeroporto di Oslo-Gardermoen (IATA: OSL, ICAO: ENGM) è il principale aeroporto norvegese e il 19° in Europa, è situato vicino alla cittadina di Ullensaker nella contea di Akershus e serve la capitale Oslo. Ha sostit ....


21-06-2018
Aerosoft Malpensa Professional P3Dv4

L'Aeroporto di Milano-Malpensa (IATA: MXP, ICAO: LIMC) è un aeroporto italiano situato nella provincia di Varese in Lombardia, ma considerato come il principale aeroporto di Milano.

È il secondo aeroporto ital ....


06-06-2018
1° Raduno Air Sicilia Virtual - parla il C.E.O.

Grande successo per il 1° Raduno di Compagnia dell'Air Sicilia Virtual, che ha visto i membri della Crew presenti il 4 giugno 2018 a Thiene ( VI ) , cimentarsi dal vivo con le reali ....


24-05-2018
Aerosoft Airport Rome XP

Tra le nostre recensioni non poteva mancare certo la nuova uscita Aerosoft per X-Plane, stiamo parlando di Airport Rome XP, finalmente un Add-on pay completo dell'Aeroporto di Roma Fiumicino per gli utilizzatori del simu ....